createdAt,value
2019-02-20T00:00:36.821Z,1031.48
2019-02-20T00:01:36.809Z,1031.45
2019-02-20T00:02:36.796Z,1031.49
2019-02-20T00:03:36.791Z,1031.43
2019-02-20T00:04:36.770Z,1031.41
2019-02-20T00:05:36.757Z,1031.43
2019-02-20T00:06:36.745Z,1031.42
2019-02-20T00:07:36.732Z,1031.41
2019-02-20T00:08:36.720Z,1031.4
2019-02-20T00:09:36.710Z,1031.44
2019-02-20T00:10:36.698Z,1031.41
2019-02-20T00:11:36.682Z,1031.4
2019-02-20T00:12:36.702Z,1031.35
2019-02-20T00:13:36.656Z,1031.38
2019-02-20T00:14:36.644Z,1031.36
2019-02-20T00:15:36.631Z,1031.35
2019-02-20T00:16:36.618Z,1031.3
2019-02-20T00:17:36.606Z,1031.27
2019-02-20T00:18:36.592Z,1031.28
2019-02-20T00:19:36.581Z,1031.28
2019-02-20T00:20:36.568Z,1031.24
2019-02-20T00:21:36.556Z,1031.24
2019-02-20T00:22:40.147Z,1031.19
2019-02-20T00:23:36.531Z,1031.21
2019-02-20T00:24:36.518Z,1031.19
2019-02-20T00:25:36.506Z,1031.18
2019-02-20T00:26:36.493Z,1031.16
2019-02-20T00:27:36.479Z,1031.23
2019-02-20T00:28:36.468Z,1031.26
2019-02-20T00:29:36.456Z,1031.18
2019-02-20T00:30:36.446Z,1031.22
2019-02-20T00:31:36.438Z,1031.19
2019-02-20T00:32:36.422Z,1031.24
2019-02-20T00:33:36.406Z,1031.22
2019-02-20T00:34:36.394Z,1031.24
2019-02-20T00:35:36.382Z,1031.18
2019-02-20T00:36:36.370Z,1031.2
2019-02-20T00:37:36.358Z,1031.16
2019-02-20T00:38:36.344Z,1031.2
2019-02-20T00:39:36.332Z,1031.19
2019-02-20T00:40:36.320Z,1031.16
2019-02-20T00:41:36.308Z,1031.19
2019-02-20T00:42:36.304Z,1031.19
2019-02-20T00:43:36.283Z,1031.2
2019-02-20T00:44:36.271Z,1031.22
2019-02-20T00:45:36.258Z,1031.28
2019-02-20T00:46:36.246Z,1031.29
2019-02-20T00:47:36.234Z,1031.32
2019-02-20T00:48:36.222Z,1031.34
2019-02-20T00:49:36.209Z,1031.3
2019-02-20T00:50:36.202Z,1031.32
2019-02-20T00:51:36.184Z,1031.3
2019-02-20T00:52:36.173Z,1031.31
2019-02-20T00:53:36.159Z,1031.3
2019-02-20T00:54:36.163Z,1031.31
2019-02-20T00:55:36.134Z,1031.3
2019-02-20T00:56:36.122Z,1031.28
2019-02-20T00:57:36.110Z,1031.28
2019-02-20T00:58:36.101Z,1031.31
2019-02-20T00:59:36.087Z,1031.34
2019-02-20T01:00:36.074Z,1031.36
2019-02-20T01:01:36.061Z,1031.38
2019-02-20T01:02:36.054Z,1031.41
2019-02-20T01:03:36.037Z,1031.36
2019-02-20T01:04:36.024Z,1031.33
2019-02-20T01:05:36.012Z,1031.37
2019-02-20T01:06:36.001Z,1031.39
2019-02-20T01:07:35.994Z,1031.4
2019-02-20T01:08:35.975Z,1031.39
2019-02-20T01:09:35.966Z,1031.41
2019-02-20T01:10:35.951Z,1031.44
2019-02-20T01:11:35.938Z,1031.45
2019-02-20T01:12:35.928Z,1031.41
2019-02-20T01:13:35.914Z,1031.41
2019-02-20T01:14:35.902Z,1031.39
2019-02-20T01:15:35.889Z,1031.4
2019-02-20T01:16:35.877Z,1031.42
2019-02-20T01:17:35.865Z,1031.41
2019-02-20T01:18:35.851Z,1031.37
2019-02-20T01:19:35.840Z,1031.36
2019-02-20T01:20:35.828Z,1031.41
2019-02-20T01:21:35.816Z,1031.42
2019-02-20T01:22:35.805Z,1031.39
2019-02-20T01:23:35.791Z,1031.4
2019-02-20T01:24:35.779Z,1031.37
2019-02-20T01:25:35.767Z,1031.36
2019-02-20T01:26:35.754Z,1031.35
2019-02-20T01:27:35.754Z,1031.34
2019-02-20T01:28:35.730Z,1031.3
2019-02-20T01:29:35.718Z,1031.29
2019-02-20T01:30:35.705Z,1031.28
2019-02-20T01:31:35.691Z,1031.35
2019-02-20T01:32:35.681Z,1031.33
2019-02-20T01:33:35.668Z,1031.37
2019-02-20T01:34:35.655Z,1031.3
2019-02-20T01:35:35.663Z,1031.29
2019-02-20T01:36:35.630Z,1031.27
2019-02-20T01:37:35.618Z,1031.33
2019-02-20T01:38:35.608Z,1031.31
2019-02-20T01:39:35.597Z,1031.28
2019-02-20T01:40:35.582Z,1031.29
2019-02-20T01:41:35.820Z,1031.3
2019-02-20T01:42:35.599Z,1031.32
2019-02-20T01:43:35.546Z,1031.29
2019-02-20T01:44:35.531Z,1031.31
2019-02-20T01:45:35.520Z,1031.32
2019-02-20T01:46:35.512Z,1031.35
2019-02-20T01:47:35.497Z,1031.39
2019-02-20T01:48:35.483Z,1031.38
2019-02-20T01:49:35.471Z,1031.37
2019-02-20T01:50:35.459Z,1031.4
2019-02-20T01:51:35.446Z,1031.4
2019-02-20T01:52:35.434Z,1031.41
2019-02-20T01:53:35.421Z,1031.37
2019-02-20T01:54:35.408Z,1031.4
2019-02-20T01:55:35.404Z,1031.39
2019-02-20T01:56:35.385Z,1031.43
2019-02-20T01:57:35.373Z,1031.39
2019-02-20T01:58:35.362Z,1031.39
2019-02-20T01:59:35.347Z,1031.38
2019-02-20T02:00:35.335Z,1031.41
2019-02-20T02:01:35.328Z,1031.38
2019-02-20T02:02:35.309Z,1031.41
2019-02-20T02:03:35.297Z,1031.41
2019-02-20T02:04:35.284Z,1031.43
2019-02-20T02:05:35.273Z,1031.53
2019-02-20T02:06:35.261Z,1031.55
2019-02-20T02:07:35.250Z,1031.58
2019-02-20T02:08:35.239Z,1031.66
2019-02-20T02:09:35.224Z,1031.7
2019-02-20T02:10:35.211Z,1031.68
2019-02-20T02:11:35.199Z,1031.73
2019-02-20T02:12:35.187Z,1031.72
2019-02-20T02:13:35.173Z,1031.74
2019-02-20T02:14:35.160Z,1031.76
2019-02-20T02:15:35.148Z,1031.75
2019-02-20T02:16:35.137Z,1031.74
2019-02-20T02:17:35.122Z,1031.72
2019-02-20T02:18:35.113Z,1031.8
2019-02-20T02:19:35.099Z,1031.82
2019-02-20T02:20:35.086Z,1031.72
2019-02-20T02:21:35.073Z,1031.73
2019-02-20T02:22:35.062Z,1031.71
2019-02-20T02:23:35.048Z,1031.7
2019-02-20T02:24:35.036Z,1031.72
2019-02-20T02:25:35.024Z,1031.71
2019-02-20T02:26:35.010Z,1031.68
2019-02-20T02:27:35.001Z,1031.66
2019-02-20T02:28:34.984Z,1031.59
2019-02-20T02:29:34.975Z,1031.62
2019-02-20T02:30:34.967Z,1031.58
2019-02-20T02:31:34.947Z,1031.59
2019-02-20T02:32:34.936Z,1031.59
2019-02-20T02:33:34.921Z,1031.48
2019-02-20T02:34:34.907Z,1031.55
2019-02-20T02:35:34.894Z,1031.56
2019-02-20T02:36:34.888Z,1031.58
2019-02-20T02:37:34.871Z,1031.55
2019-02-20T02:38:34.874Z,1031.61
2019-02-20T02:39:34.843Z,1031.62
2019-02-20T02:40:34.830Z,1031.62
2019-02-20T02:41:34.818Z,1031.65
2019-02-20T02:42:34.807Z,1031.61
2019-02-20T02:43:34.792Z,1031.56
2019-02-20T02:44:34.787Z,1031.54
2019-02-20T02:45:34.768Z,1031.56
2019-02-20T02:46:34.753Z,1031.57
2019-02-20T02:47:34.743Z,1031.6
2019-02-20T02:48:34.730Z,1031.58
2019-02-20T02:49:34.716Z,1031.65
2019-02-20T02:50:34.704Z,1031.71
2019-02-20T02:51:34.690Z,1031.7
2019-02-20T02:52:34.678Z,1031.67
2019-02-20T02:53:34.665Z,1031.69
2019-02-20T02:54:34.655Z,1031.74
2019-02-20T02:55:34.641Z,1031.78
2019-02-20T02:56:34.629Z,1031.76
2019-02-20T02:57:34.615Z,1031.79
2019-02-20T02:58:34.601Z,1031.79
2019-02-20T02:59:34.589Z,1031.8
2019-02-20T03:00:34.575Z,1031.83
2019-02-20T03:01:34.623Z,1031.81
2019-02-20T03:02:34.551Z,1031.85
2019-02-20T03:03:34.538Z,1031.87
2019-02-20T03:04:34.528Z,1031.9
2019-02-20T03:05:34.512Z,1031.87
2019-02-20T03:06:34.500Z,1031.89
2019-02-20T03:07:34.490Z,1031.91
2019-02-20T03:08:34.475Z,1031.85
2019-02-20T03:09:34.462Z,1031.89
2019-02-20T03:10:34.449Z,1031.91
2019-02-20T03:11:34.436Z,1031.93
2019-02-20T03:12:34.423Z,1031.9
2019-02-20T03:13:34.410Z,1031.94
2019-02-20T03:14:34.398Z,1031.93
2019-02-20T03:15:34.384Z,1031.9
2019-02-20T03:16:34.372Z,1031.9
2019-02-20T03:17:34.365Z,1031.87
2019-02-20T03:18:34.347Z,1031.93
2019-02-20T03:19:34.332Z,1031.97
2019-02-20T03:20:34.321Z,1031.98
2019-02-20T03:21:34.312Z,1032.01
2019-02-20T03:22:34.296Z,1031.99
2019-02-20T03:23:40.093Z,1031.99
2019-02-20T03:24:34.268Z,1032.04
2019-02-20T03:25:34.263Z,1032.12
2019-02-20T03:26:34.242Z,1032.16
2019-02-20T03:27:34.230Z,1032.2
2019-02-20T03:28:34.218Z,1032.22
2019-02-20T03:29:34.203Z,1032.3
2019-02-20T03:30:34.196Z,1032.33
2019-02-20T03:31:34.180Z,1032.36
2019-02-20T03:32:34.166Z,1032.39
2019-02-20T03:33:34.156Z,1032.46
2019-02-20T03:34:34.139Z,1032.47
2019-02-20T03:35:34.126Z,1032.53
2019-02-20T03:36:34.112Z,1032.58
2019-02-20T03:37:34.100Z,1032.59
2019-02-20T03:38:34.087Z,1032.66
2019-02-20T03:39:34.074Z,1032.64
2019-02-20T03:40:34.061Z,1032.66
2019-02-20T03:41:34.047Z,1032.73
2019-02-20T03:42:34.034Z,1032.78
2019-02-20T03:43:34.021Z,1032.79
2019-02-20T03:44:34.008Z,1032.79
2019-02-20T03:45:33.995Z,1032.85
2019-02-20T03:46:33.982Z,1032.83
2019-02-20T03:47:33.969Z,1032.88
2019-02-20T03:48:33.958Z,1032.91
2019-02-20T03:49:33.941Z,1032.92
2019-02-20T03:50:33.928Z,1032.93
2019-02-20T03:51:33.914Z,1032.93
2019-02-20T03:52:33.902Z,1032.94
2019-02-20T03:53:33.889Z,1032.99
2019-02-20T03:54:33.874Z,1032.97
2019-02-20T03:55:33.860Z,1033.01
2019-02-20T03:56:33.855Z,1033.03
2019-02-20T03:57:33.835Z,1033.03
2019-02-20T03:58:33.820Z,1033.05
2019-02-20T03:59:33.809Z,1033.05
2019-02-20T04:00:33.793Z,1033.1
2019-02-20T04:01:33.780Z,1033.13
2019-02-20T04:02:33.766Z,1033.14
2019-02-20T04:03:33.751Z,1033.16
2019-02-20T04:04:33.738Z,1033.14
2019-02-20T04:05:33.724Z,1033.2
2019-02-20T04:06:33.712Z,1033.18
2019-02-20T04:07:33.696Z,1033.2
2019-02-20T04:08:33.682Z,1033.24
2019-02-20T04:09:33.669Z,1033.24
2019-02-20T04:10:33.655Z,1033.27
2019-02-20T04:11:33.641Z,1033.26
2019-02-20T04:12:33.627Z,1033.26
2019-02-20T04:13:33.614Z,1033.25
2019-02-20T04:14:33.602Z,1033.27
2019-02-20T04:15:33.586Z,1033.31
2019-02-20T04:16:33.576Z,1033.29
2019-02-20T04:17:33.806Z,1033.28
2019-02-20T04:18:33.545Z,1033.26
2019-02-20T04:19:33.532Z,1033.32
2019-02-20T04:20:33.516Z,1033.3
2019-02-20T04:21:33.508Z,1033.34
2019-02-20T04:22:33.488Z,1033.3
2019-02-20T04:23:33.473Z,1033.26
2019-02-20T04:24:33.460Z,1033.31
2019-02-20T04:25:33.446Z,1033.31
2019-02-20T04:26:33.432Z,1033.35
2019-02-20T04:27:33.417Z,1033.35
2019-02-20T04:28:33.402Z,1033.41
2019-02-20T04:29:33.392Z,1033.39
2019-02-20T04:30:33.376Z,1033.35
2019-02-20T04:31:33.363Z,1033.36
2019-02-20T04:32:33.346Z,1033.32
2019-02-20T04:33:33.332Z,1033.32
2019-02-20T04:34:33.319Z,1033.32
2019-02-20T04:35:33.305Z,1033.29
2019-02-20T04:36:33.289Z,1033.2
2019-02-20T04:37:33.276Z,1033.19
2019-02-20T04:38:33.260Z,1033.18
2019-02-20T04:39:33.248Z,1033.2
2019-02-20T04:40:33.232Z,1033.12
2019-02-20T04:41:33.219Z,1033.14
2019-02-20T04:42:33.206Z,1033.12
2019-02-20T04:43:33.192Z,1033.1
2019-02-20T04:44:33.176Z,1033.15
2019-02-20T04:45:33.164Z,1033.11
2019-02-20T04:46:33.150Z,1033.11
2019-02-20T04:47:33.138Z,1033.13
2019-02-20T04:48:33.120Z,1033.06
2019-02-20T04:49:33.107Z,1033.09
2019-02-20T04:50:33.092Z,1033.06
2019-02-20T04:51:33.082Z,1033.03
2019-02-20T04:52:33.064Z,1033.04
2019-02-20T04:53:33.051Z,1033.01
2019-02-20T04:54:33.037Z,1033.03
2019-02-20T04:55:33.023Z,1033.01
2019-02-20T04:56:33.009Z,1033
2019-02-20T04:57:32.996Z,1032.92
2019-02-20T04:58:32.980Z,1032.94
2019-02-20T04:59:32.970Z,1032.95
2019-02-20T05:00:32.955Z,1032.84
2019-02-20T05:01:32.938Z,1032.79
2019-02-20T05:02:32.924Z,1032.77
2019-02-20T05:03:32.913Z,1032.76
2019-02-20T05:04:32.899Z,1032.76
2019-02-20T05:05:32.883Z,1032.77
2019-02-20T05:06:32.870Z,1032.7
2019-02-20T05:07:32.856Z,1032.68
2019-02-20T05:08:32.845Z,1032.67
2019-02-20T05:09:32.829Z,1032.59
2019-02-20T05:10:32.815Z,1032.6
2019-02-20T05:11:32.803Z,1032.5
2019-02-20T05:12:32.789Z,1032.47
2019-02-20T05:13:32.777Z,1032.41
2019-02-20T05:14:32.763Z,1032.39
2019-02-20T05:15:32.748Z,1032.35
2019-02-20T05:16:32.739Z,1032.32
2019-02-20T05:17:32.721Z,1032.28
2019-02-20T05:18:32.709Z,1032.25
2019-02-20T05:19:32.695Z,1032.26
2019-02-20T05:20:32.683Z,1032.33
2019-02-20T05:21:32.670Z,1032.35
2019-02-20T05:22:32.655Z,1032.33
2019-02-20T05:23:32.642Z,1032.26
2019-02-20T05:24:32.630Z,1032.27
2019-02-20T05:25:32.616Z,1032.24
2019-02-20T05:26:32.603Z,1032.26
2019-02-20T05:27:32.591Z,1032.24
2019-02-20T05:28:32.576Z,1032.29
2019-02-20T05:29:32.564Z,1032.25
2019-02-20T05:30:32.549Z,1032.22
2019-02-20T05:31:32.537Z,1032.23
2019-02-20T05:32:32.524Z,1032.22
2019-02-20T05:33:32.510Z,1032.22
2019-02-20T05:34:32.508Z,1032.23
2019-02-20T05:35:32.486Z,1032.22
2019-02-20T05:36:32.488Z,1032.18
2019-02-20T05:37:32.459Z,1032.21
2019-02-20T05:38:32.446Z,1032.17
2019-02-20T05:39:32.440Z,1032.17
2019-02-20T05:40:32.423Z,1032.18
2019-02-20T05:41:32.407Z,1032.13
2019-02-20T05:42:32.397Z,1032.12
2019-02-20T05:43:32.383Z,1032.08
2019-02-20T05:44:32.369Z,1032.05
2019-02-20T05:45:32.357Z,1032.02
2019-02-20T05:46:32.344Z,1032.04
2019-02-20T05:47:32.333Z,1032.04
2019-02-20T05:48:32.320Z,1032.12
2019-02-20T05:49:32.306Z,1032.11
2019-02-20T05:50:32.299Z,1032.11
2019-02-20T05:51:32.283Z,1032.14
2019-02-20T05:52:32.268Z,1032.13
2019-02-20T05:53:32.256Z,1032.15
2019-02-20T05:54:34.778Z,1032.11
2019-02-20T05:55:32.231Z,1032.15
2019-02-20T05:56:32.219Z,1032.11
2019-02-20T05:57:32.205Z,1032.1
2019-02-20T05:58:32.197Z,1032.1
2019-02-20T05:59:32.181Z,1032.13
2019-02-20T06:00:32.184Z,1032.12
2019-02-20T06:01:32.156Z,1032.17
2019-02-20T06:02:32.144Z,1032.16
2019-02-20T06:03:32.132Z,1032.16
2019-02-20T06:04:32.118Z,1032.17
2019-02-20T06:05:32.106Z,1032.16
2019-02-20T06:06:32.095Z,1032.16
2019-02-20T06:07:32.089Z,1032.2
2019-02-20T06:08:32.069Z,1032.14
2019-02-20T06:09:32.056Z,1032.2
2019-02-20T06:10:32.053Z,1032.21
2019-02-20T06:11:32.032Z,1032.19
2019-02-20T06:12:32.020Z,1032.18
2019-02-20T06:13:32.007Z,1032.2
2019-02-20T06:14:31.993Z,1032.2
2019-02-20T06:15:31.982Z,1032.24
2019-02-20T06:16:31.970Z,1032.19
2019-02-20T06:17:31.958Z,1032.21
2019-02-20T06:18:31.944Z,1032.18
2019-02-20T06:19:31.933Z,1032.24
2019-02-20T06:20:31.925Z,1032.25
2019-02-20T06:21:31.911Z,1032.27
2019-02-20T06:22:31.896Z,1032.28
2019-02-20T06:23:31.890Z,1032.29
2019-02-20T06:24:31.872Z,1032.3
2019-02-20T06:25:31.866Z,1032.3
2019-02-20T06:26:31.847Z,1032.25
2019-02-20T06:27:31.836Z,1032.32
2019-02-20T06:28:31.827Z,1032.29
2019-02-20T06:29:31.815Z,1032.3
2019-02-20T06:30:31.798Z,1032.33
2019-02-20T06:31:31.790Z,1032.27
2019-02-20T06:32:31.775Z,1032.25
2019-02-20T06:33:31.762Z,1032.25
2019-02-20T06:34:31.750Z,1032.28
2019-02-20T06:35:31.739Z,1032.23
2019-02-20T06:36:31.727Z,1032.24
2019-02-20T06:37:31.714Z,1032.23
2019-02-20T06:38:31.741Z,1032.23
2019-02-20T06:39:31.690Z,1032.17
2019-02-20T06:40:31.692Z,1032.19
2019-02-20T06:41:38.502Z,1032.19
2019-02-20T06:42:31.654Z,1032.22
2019-02-20T06:43:31.641Z,1032.16
2019-02-20T06:44:31.630Z,1032.16
2019-02-20T06:45:31.618Z,1032.11
2019-02-20T06:46:31.606Z,1032.1
2019-02-20T06:47:31.595Z,1032.12
2019-02-20T06:48:31.582Z,1032.06
2019-02-20T06:49:31.571Z,1032.11
2019-02-20T06:50:31.558Z,1032.07
2019-02-20T06:51:31.549Z,1032.04
2019-02-20T06:52:31.535Z,1031.96
2019-02-20T06:53:31.773Z,1031.89
2019-02-20T06:54:31.511Z,1031.83
2019-02-20T06:55:31.499Z,1031.78
2019-02-20T06:56:31.491Z,1031.72
2019-02-20T06:57:31.478Z,1031.68
2019-02-20T06:58:31.465Z,1031.57
2019-02-20T06:59:31.455Z,1031.43
2019-02-20T07:00:31.443Z,1031.43
2019-02-20T07:01:31.431Z,1031.41
2019-02-20T07:02:31.421Z,1031.33
2019-02-20T07:03:31.407Z,1031.21
2019-02-20T07:04:31.398Z,1031.16
2019-02-20T07:05:31.385Z,1031.16
2019-02-20T07:06:31.378Z,1031.13
2019-02-20T07:07:31.366Z,1031.03
2019-02-20T07:08:31.354Z,1030.84
2019-02-20T07:09:31.343Z,1030.7
2019-02-20T07:10:31.331Z,1030.71
2019-02-20T07:11:31.322Z,1030.69
2019-02-20T07:12:31.311Z,1030.72
2019-02-20T07:13:31.300Z,1030.78
2019-02-20T07:14:31.290Z,1030.8
2019-02-20T07:15:31.280Z,1030.8
2019-02-20T07:16:31.269Z,1030.84
2019-02-20T07:17:31.259Z,1030.9
2019-02-20T07:18:31.248Z,1030.85
2019-02-20T07:19:31.239Z,1030.9
2019-02-20T07:20:31.229Z,1030.93
2019-02-20T07:21:31.219Z,1030.92
2019-02-20T07:22:31.209Z,1030.96
2019-02-20T07:23:31.199Z,1030.94
2019-02-20T07:24:31.192Z,1031.01
2019-02-20T07:25:31.179Z,1030.96
2019-02-20T07:26:31.174Z,1030.97
2019-02-20T07:27:31.158Z,1030.99
2019-02-20T07:28:31.148Z,1031
2019-02-20T07:29:31.142Z,1031
2019-02-20T07:30:31.128Z,1031.02
2019-02-20T07:31:31.117Z,1031.02
2019-02-20T07:32:31.109Z,1031.03
2019-02-20T07:33:31.104Z,1031.05
2019-02-20T07:34:31.090Z,1031.05
2019-02-20T07:35:31.080Z,1031.14
2019-02-20T07:36:31.070Z,1031.12
2019-02-20T07:37:31.083Z,1031.08
2019-02-20T07:38:31.048Z,1031.08
2019-02-20T07:39:31.039Z,1031.08
2019-02-20T07:40:31.030Z,1031.06
2019-02-20T07:41:31.020Z,1031.03
2019-02-20T07:42:31.009Z,1031.02
2019-02-20T07:43:30.999Z,1030.99
2019-02-20T07:44:30.995Z,1030.97
2019-02-20T07:45:30.980Z,1031.01
2019-02-20T07:46:30.969Z,1030.99
2019-02-20T07:47:30.960Z,1030.98
2019-02-20T07:48:30.950Z,1031.04
2019-02-20T07:49:30.940Z,1031.07
2019-02-20T07:50:30.937Z,1031.08
2019-02-20T07:51:30.922Z,1031.16
2019-02-20T07:52:30.913Z,1031.23
2019-02-20T07:53:30.902Z,1031.28
2019-02-20T07:54:30.895Z,1031.34
2019-02-20T07:55:30.882Z,1031.38
2019-02-20T07:56:30.874Z,1031.41
2019-02-20T07:57:30.863Z,1031.5
2019-02-20T07:58:30.932Z,1031.52
2019-02-20T07:59:30.845Z,1031.61
2019-02-20T08:00:30.834Z,1031.58
2019-02-20T08:01:30.825Z,1031.6
2019-02-20T08:02:30.815Z,1031.55
2019-02-20T08:03:30.806Z,1031.53
2019-02-20T08:04:30.795Z,1031.53
2019-02-20T08:05:30.786Z,1031.45
2019-02-20T08:06:30.775Z,1031.43
2019-02-20T08:07:30.767Z,1031.43
2019-02-20T08:08:30.758Z,1031.37
2019-02-20T08:09:30.748Z,1031.36
2019-02-20T08:10:30.738Z,1031.29
2019-02-20T08:11:30.726Z,1031.23
2019-02-20T08:12:30.719Z,1031.19
2019-02-20T08:13:39.021Z,1031.17
2019-02-20T08:14:30.701Z,1031.12
2019-02-20T08:15:30.691Z,1031.09
2019-02-20T08:16:30.682Z,1031.1
2019-02-20T08:17:30.673Z,1031.12
2019-02-20T08:18:30.665Z,1031.13
2019-02-20T08:19:30.661Z,1031.12
2019-02-20T08:20:30.644Z,1031.06
2019-02-20T08:21:30.635Z,1031.03
2019-02-20T08:22:30.626Z,1031.1
2019-02-20T08:23:30.617Z,1031.05
2019-02-20T08:24:30.608Z,1031.01
2019-02-20T08:25:30.599Z,1031.03
2019-02-20T08:26:30.589Z,1031.07
2019-02-20T08:27:30.580Z,1031.05
2019-02-20T08:28:30.577Z,1031.12
2019-02-20T08:29:30.563Z,1031.12
2019-02-20T08:30:30.553Z,1031.14
2019-02-20T08:31:30.546Z,1031.17
2019-02-20T08:32:30.538Z,1031.15
2019-02-20T08:33:30.529Z,1031.17
2019-02-20T08:34:30.519Z,1031.19
2019-02-20T08:35:30.510Z,1031.21
2019-02-20T08:36:30.501Z,1031.28
2019-02-20T08:37:30.491Z,1031.37
2019-02-20T08:38:30.483Z,1031.43
2019-02-20T08:39:30.474Z,1031.47
2019-02-20T08:40:30.464Z,1031.48
2019-02-20T08:41:30.456Z,1031.52
2019-02-20T08:42:30.451Z,1031.5
2019-02-20T08:43:30.437Z,1031.54
2019-02-20T08:44:30.429Z,1031.46
2019-02-20T08:45:30.420Z,1031.47
2019-02-20T08:46:30.411Z,1031.41
2019-02-20T08:47:30.410Z,1031.27
2019-02-20T08:48:30.398Z,1031.18
2019-02-20T08:49:30.384Z,1031.14
2019-02-20T08:50:30.376Z,1031.08
2019-02-20T08:51:30.366Z,1031.02
2019-02-20T08:52:30.358Z,1031
2019-02-20T08:53:30.348Z,1030.92
2019-02-20T08:54:30.347Z,1030.87
2019-02-20T08:55:32.219Z,1030.85
2019-02-20T08:56:30.323Z,1030.8
2019-02-20T08:57:30.318Z,1030.73
2019-02-20T08:58:30.306Z,1030.7
2019-02-20T08:59:30.296Z,1030.64
2019-02-20T09:00:30.291Z,1030.64
2019-02-20T09:01:30.284Z,1030.69
2019-02-20T09:02:30.274Z,1030.75
2019-02-20T09:03:30.263Z,1030.71
2019-02-20T09:04:30.303Z,1030.7
2019-02-20T09:05:30.247Z,1030.62
2019-02-20T09:06:30.240Z,1030.63
2019-02-20T09:07:30.231Z,1030.56
2019-02-20T09:08:30.223Z,1030.59
2019-02-20T09:09:30.225Z,1030.55
2019-02-20T09:10:30.206Z,1030.56
2019-02-20T09:11:30.199Z,1030.5
2019-02-20T09:12:30.192Z,1030.51
2019-02-20T09:13:30.183Z,1030.58
2019-02-20T09:14:30.178Z,1030.62
2019-02-20T09:15:30.167Z,1030.63
2019-02-20T09:16:30.169Z,1030.6
2019-02-20T09:17:30.157Z,1030.57
2019-02-20T09:18:30.143Z,1030.49
2019-02-20T09:19:30.136Z,1030.47
2019-02-20T09:20:30.129Z,1030.49
2019-02-20T09:21:30.121Z,1030.46
2019-02-20T09:22:30.113Z,1030.48
2019-02-20T09:23:30.106Z,1030.45
2019-02-20T09:24:30.097Z,1030.48
2019-02-20T09:25:30.090Z,1030.51
2019-02-20T09:26:30.088Z,1030.56
2019-02-20T09:27:30.081Z,1030.62
2019-02-20T09:28:30.072Z,1030.63
2019-02-20T09:29:30.061Z,1030.7
2019-02-20T09:30:30.257Z,1030.81
2019-02-20T09:31:30.046Z,1030.83
2019-02-20T09:32:30.047Z,1030.85
2019-02-20T09:33:30.031Z,1030.85
2019-02-20T09:34:30.023Z,1030.87
2019-02-20T09:35:30.016Z,1030.94
2019-02-20T09:36:30.008Z,1030.94
2019-02-20T09:37:30.002Z,1030.93
2019-02-20T09:38:29.994Z,1030.9
2019-02-20T09:39:29.986Z,1030.87
2019-02-20T09:40:29.980Z,1030.88
2019-02-20T09:41:29.971Z,1030.89
2019-02-20T09:42:29.964Z,1030.92
2019-02-20T09:43:29.955Z,1030.89
2019-02-20T09:44:29.954Z,1030.87
2019-02-20T09:45:29.941Z,1030.86
2019-02-20T09:46:29.933Z,1030.8
2019-02-20T09:47:29.927Z,1030.74
2019-02-20T09:48:29.920Z,1030.74
2019-02-20T09:49:29.911Z,1030.74
2019-02-20T09:50:29.906Z,1030.63
2019-02-20T09:51:29.896Z,1030.6
2019-02-20T09:52:29.889Z,1030.51
2019-02-20T09:53:29.881Z,1030.37
2019-02-20T09:54:29.874Z,1030.32
2019-02-20T09:55:29.866Z,1030.26
2019-02-20T09:56:29.860Z,1030.37
2019-02-20T09:57:29.851Z,1030.39
2019-02-20T09:58:29.844Z,1030.43
2019-02-20T09:59:29.836Z,1030.37
2019-02-20T10:00:29.830Z,1030.32
2019-02-20T10:01:29.822Z,1030.32
2019-02-20T10:02:29.817Z,1030.29
2019-02-20T10:03:29.810Z,1030.29
2019-02-20T10:04:29.802Z,1030.23
2019-02-20T10:05:29.796Z,1030.23
2019-02-20T10:06:29.789Z,1030.35
2019-02-20T10:07:29.784Z,1030.35
2019-02-20T10:08:29.775Z,1030.31
2019-02-20T10:09:29.771Z,1030.41
2019-02-20T10:10:29.766Z,1030.57
2019-02-20T10:11:29.761Z,1030.52
2019-02-20T10:12:29.747Z,1030.61
2019-02-20T10:13:29.740Z,1030.55
2019-02-20T10:14:29.741Z,1030.53
2019-02-20T10:15:29.727Z,1030.52
2019-02-20T10:16:29.721Z,1030.5
2019-02-20T10:17:29.714Z,1030.49
2019-02-20T10:18:29.708Z,1030.49
2019-02-20T10:19:29.700Z,1030.46
2019-02-20T10:20:29.696Z,1030.44
2019-02-20T10:21:29.687Z,1030.42
2019-02-20T10:22:29.680Z,1030.34
2019-02-20T10:23:29.673Z,1030.28
2019-02-20T10:24:29.671Z,1030.22
2019-02-20T10:25:29.665Z,1030.21
2019-02-20T10:26:29.653Z,1030.3
2019-02-20T10:27:29.646Z,1030.26
2019-02-20T10:28:29.641Z,1030.35
2019-02-20T10:29:29.635Z,1030.4
2019-02-20T10:30:29.626Z,1030.4
2019-02-20T10:31:29.620Z,1030.45
2019-02-20T10:32:29.616Z,1030.4
2019-02-20T10:33:29.607Z,1030.54
2019-02-20T10:34:29.601Z,1030.52
2019-02-20T10:35:29.597Z,1030.57
2019-02-20T10:36:29.588Z,1030.6
2019-02-20T10:37:29.580Z,1030.59
2019-02-20T10:38:29.575Z,1030.61
2019-02-20T10:39:29.568Z,1030.59
2019-02-20T10:40:29.561Z,1030.49
2019-02-20T10:41:29.555Z,1030.48
2019-02-20T10:42:29.549Z,1030.43
2019-02-20T10:43:29.543Z,1030.41
2019-02-20T10:44:29.538Z,1030.38
2019-02-20T10:45:29.529Z,1030.35
2019-02-20T10:46:29.523Z,1030.39
2019-02-20T10:47:29.518Z,1030.3
2019-02-20T10:48:29.510Z,1030.28
2019-02-20T10:49:29.504Z,1030.13
2019-02-20T10:50:29.497Z,1030.13
2019-02-20T10:51:29.491Z,1030.11
2019-02-20T10:52:29.533Z,1030.1
2019-02-20T10:53:29.478Z,1030.17
2019-02-20T10:54:29.472Z,1030.18
2019-02-20T10:55:29.467Z,1030.25
2019-02-20T10:56:29.460Z,1030.33
2019-02-20T10:57:29.452Z,1030.38
2019-02-20T10:58:29.447Z,1030.46
2019-02-20T10:59:29.440Z,1030.46
2019-02-20T11:00:29.434Z,1030.53
2019-02-20T11:01:29.428Z,1030.55
2019-02-20T11:02:29.422Z,1030.59
2019-02-20T11:03:29.417Z,1030.58
2019-02-20T11:04:30.815Z,1030.58
2019-02-20T11:05:29.401Z,1030.51
2019-02-20T11:06:29.397Z,1030.54
2019-02-20T11:07:29.390Z,1030.58
2019-02-20T11:08:30.452Z,1030.57
2019-02-20T11:09:29.377Z,1030.6
2019-02-20T11:10:29.373Z,1030.67
2019-02-20T11:11:29.364Z,1030.68
2019-02-20T11:12:29.358Z,1030.71
2019-02-20T11:13:29.352Z,1030.79
2019-02-20T11:14:29.344Z,1030.73
2019-02-20T11:15:29.338Z,1030.83
2019-02-20T11:16:29.332Z,1030.85
2019-02-20T11:17:29.327Z,1030.92
2019-02-20T11:18:29.320Z,1030.98
2019-02-20T11:19:29.312Z,1031.13
2019-02-20T11:20:29.323Z,1031.19
2019-02-20T11:21:29.300Z,1031.22
2019-02-20T11:22:29.292Z,1031.31
2019-02-20T11:23:29.287Z,1031.36
2019-02-20T11:24:29.279Z,1031.35
2019-02-20T11:25:31.127Z,1031.32
2019-02-20T11:26:29.264Z,1031.31
2019-02-20T11:27:29.257Z,1031.35
2019-02-20T11:28:29.252Z,1031.4
2019-02-20T11:29:29.244Z,1031.43
2019-02-20T11:30:29.237Z,1031.42
2019-02-20T11:31:29.230Z,1031.45
2019-02-20T11:32:29.222Z,1031.48
2019-02-20T11:33:29.215Z,1031.53
2019-02-20T11:34:29.210Z,1031.55
2019-02-20T11:35:29.202Z,1031.53
2019-02-20T11:36:29.194Z,1031.55
2019-02-20T11:37:29.187Z,1031.55
2019-02-20T11:38:30.880Z,1031.59
2019-02-20T11:39:37.206Z,1031.64
2019-02-20T11:40:29.165Z,1031.65
2019-02-20T11:41:29.158Z,1031.68
2019-02-20T11:42:29.153Z,1031.67
2019-02-20T11:43:29.143Z,1031.72
2019-02-20T11:44:29.135Z,1031.71
2019-02-20T11:45:29.128Z,1031.71
2019-02-20T11:46:29.119Z,1031.66
2019-02-20T11:47:29.112Z,1031.62
2019-02-20T11:48:29.105Z,1031.54
2019-02-20T11:49:29.101Z,1031.43
2019-02-20T11:50:29.089Z,1031.51
2019-02-20T11:51:29.081Z,1031.44
2019-02-20T11:52:29.078Z,1031.38
2019-02-20T11:53:36.750Z,1031.18
2019-02-20T11:54:29.059Z,1031.02
2019-02-20T11:55:29.051Z,1030.99
2019-02-20T11:56:29.045Z,1030.93
2019-02-20T11:57:29.037Z,1030.85
2019-02-20T11:58:29.027Z,1030.76
2019-02-20T11:59:29.021Z,1030.75
2019-02-20T12:00:29.015Z,1030.72
2019-02-20T12:01:29.006Z,1030.66
2019-02-20T12:02:37.139Z,1030.65
2019-02-20T12:03:28.990Z,1030.64
2019-02-20T12:04:28.983Z,1030.62
2019-02-20T12:05:28.979Z,1030.55
2019-02-20T12:06:28.971Z,1030.52
2019-02-20T12:07:28.963Z,1030.47
2019-02-20T12:08:28.956Z,1030.5